Terminal Aerodrome Forecast
Issued by NWS

Home | Current Version | Previous Version | Graphics & Text | Print | Product List | Glossary On
Versions: 1 2 3 4 5 6 7 8 9 10 11 12 13 14 15 16 17 18
000
FTUS43 KICT 262322
TAFHUT
TAF
KHUT 262322Z 2700/2724 34008KT P6SM SKC
     FM270500 VRB04KT P6SM SKC
     FM271300 14005KT P6SM SCT130 BKN250
     FM271800 13012KT P6SM OVC100=

USA.gov is the U.S. government's official web portal to all federal, state and local government web resources and services.